createdAt,value
2019-02-15T00:00:45.342Z,0.00
2019-02-15T00:01:45.262Z,0.00
2019-02-15T00:03:38.437Z,0.00
2019-02-15T00:04:38.012Z,0.00
2019-02-15T00:06:31.223Z,0.00
2019-02-15T00:07:30.276Z,0.00
2019-02-15T00:09:23.874Z,0.00
2019-02-15T00:10:23.871Z,0.00
2019-02-15T00:12:17.595Z,0.00
2019-02-15T00:13:18.094Z,0.00
2019-02-15T00:15:10.923Z,0.00
2019-02-15T00:16:09.711Z,0.00
2019-02-15T00:18:04.319Z,0.00
2019-02-15T00:19:03.459Z,0.00
2019-02-15T00:20:56.712Z,0.00
2019-02-15T00:21:55.742Z,0.00
2019-02-15T00:23:48.913Z,0.00
2019-02-15T00:24:48.537Z,0.00
2019-02-15T00:26:43.705Z,0.00
2019-02-15T00:27:42.025Z,0.00
2019-02-15T00:29:36.899Z,0.00
2019-02-15T00:30:37.356Z,0.00
2019-02-15T00:32:29.333Z,0.00
2019-02-15T00:33:29.286Z,0.00
2019-02-15T00:35:22.522Z,0.00
2019-02-15T00:36:21.421Z,0.00
2019-02-15T00:38:15.280Z,0.00
2019-02-15T00:39:14.314Z,0.00
2019-02-15T00:41:09.705Z,0.00
2019-02-15T00:42:09.674Z,0.00
2019-02-15T00:44:02.332Z,0.00
2019-02-15T00:45:02.236Z,0.00
2019-02-15T00:46:55.658Z,0.00
2019-02-15T00:47:55.956Z,0.00
2019-02-15T00:49:49.605Z,0.00
2019-02-15T00:50:48.186Z,0.00
2019-02-15T00:52:42.570Z,0.00
2019-02-15T00:53:41.239Z,0.00
2019-02-15T00:55:35.743Z,0.00
2019-02-15T00:56:34.154Z,0.00
2019-02-15T00:58:27.961Z,0.00
2019-02-15T00:59:27.110Z,0.00
2019-02-15T01:01:20.349Z,0.00
2019-02-15T01:02:20.060Z,0.00
2019-02-15T01:03:19.931Z,0.00
2019-02-15T01:04:20.715Z,0.00
2019-02-15T01:05:19.716Z,0.00
2019-02-15T01:06:19.676Z,0.00
2019-02-15T01:07:19.626Z,0.00
2019-02-15T01:08:19.572Z,0.00
2019-02-15T01:09:19.529Z,0.00
2019-02-15T01:10:19.493Z,0.00
2019-02-15T01:11:19.438Z,0.00
2019-02-15T01:12:19.398Z,0.00
2019-02-15T01:13:19.362Z,0.00
2019-02-15T01:14:19.321Z,0.00
2019-02-15T01:15:19.271Z,0.00
2019-02-15T01:16:19.222Z,0.00
2019-02-15T01:17:19.182Z,0.00
2019-02-15T01:18:19.139Z,0.00
2019-02-15T01:19:19.104Z,0.00
2019-02-15T01:20:19.046Z,0.00
2019-02-15T01:21:18.993Z,0.00
2019-02-15T01:22:18.962Z,0.00
2019-02-15T01:23:18.970Z,0.00
2019-02-15T01:24:18.891Z,0.00
2019-02-15T01:25:18.878Z,0.00
2019-02-15T01:26:18.781Z,0.00
2019-02-15T01:27:18.754Z,0.00
2019-02-15T01:28:18.692Z,0.00
2019-02-15T01:29:18.644Z,0.00
2019-02-15T01:30:18.602Z,0.00
2019-02-15T01:31:18.556Z,0.00
2019-02-15T01:32:18.503Z,0.00
2019-02-15T01:33:18.459Z,0.00
2019-02-15T01:34:18.414Z,0.00
2019-02-15T01:35:18.412Z,0.00
2019-02-15T01:36:18.331Z,0.00
2019-02-15T01:37:18.303Z,0.00
2019-02-15T01:38:18.240Z,0.00
2019-02-15T01:39:18.198Z,0.00
2019-02-15T01:40:18.294Z,0.00
2019-02-15T01:41:18.129Z,0.00
2019-02-15T01:42:18.062Z,0.00
2019-02-15T01:43:18.051Z,0.00
2019-02-15T01:44:17.976Z,0.00
2019-02-15T01:45:17.931Z,0.00
2019-02-15T01:46:17.904Z,0.00
2019-02-15T01:47:17.850Z,0.00
2019-02-15T01:48:17.817Z,0.00
2019-02-15T01:49:17.752Z,0.00
2019-02-15T01:50:17.707Z,0.00
2019-02-15T01:51:17.668Z,0.00
2019-02-15T01:52:17.630Z,0.00
2019-02-15T01:53:17.574Z,0.00
2019-02-15T01:54:17.570Z,0.00
2019-02-15T01:55:17.487Z,0.00
2019-02-15T01:56:17.441Z,0.00
2019-02-15T01:57:17.409Z,0.00
2019-02-15T01:58:17.358Z,0.00
2019-02-15T01:59:17.338Z,0.00
2019-02-15T02:00:17.268Z,0.00
2019-02-15T02:01:17.220Z,0.00
2019-02-15T02:02:17.180Z,0.00
2019-02-15T02:03:17.146Z,0.00
2019-02-15T02:04:17.093Z,0.00
2019-02-15T02:05:17.043Z,0.00
2019-02-15T02:06:16.997Z,0.00
2019-02-15T02:07:16.952Z,0.00
2019-02-15T02:08:16.913Z,0.00
2019-02-15T02:09:16.911Z,0.00
2019-02-15T02:10:16.812Z,0.00
2019-02-15T02:11:16.847Z,0.00
2019-02-15T02:12:16.750Z,0.00
2019-02-15T02:13:16.707Z,0.00
2019-02-15T02:14:16.641Z,0.00
2019-02-15T02:15:16.603Z,0.00
2019-02-15T02:16:16.558Z,0.00
2019-02-15T02:17:16.496Z,0.00
2019-02-15T02:18:16.478Z,0.00
2019-02-15T02:19:16.439Z,0.00
2019-02-15T02:20:16.390Z,0.00
2019-02-15T02:21:16.341Z,0.00
2019-02-15T02:22:16.281Z,0.00
2019-02-15T02:23:16.242Z,0.00
2019-02-15T02:24:16.213Z,0.00
2019-02-15T02:25:16.180Z,0.00
2019-02-15T02:26:16.098Z,0.00
2019-02-15T02:27:16.072Z,0.00
2019-02-15T02:28:16.005Z,0.00
2019-02-15T02:29:15.965Z,0.00
2019-02-15T02:30:15.938Z,0.00
2019-02-15T02:31:15.885Z,0.00
2019-02-15T02:32:15.831Z,0.00
2019-02-15T02:33:15.792Z,0.00
2019-02-15T02:34:15.746Z,0.00
2019-02-15T02:35:15.747Z,0.00
2019-02-15T02:36:15.653Z,0.00
2019-02-15T02:37:15.604Z,0.00
2019-02-15T02:38:15.638Z,0.00
2019-02-15T02:39:15.555Z,0.00
2019-02-15T02:40:15.460Z,0.00
2019-02-15T02:41:15.425Z,0.00
2019-02-15T02:42:15.418Z,0.00
2019-02-15T02:43:15.338Z,0.00
2019-02-15T02:44:16.208Z,0.00
2019-02-15T02:45:15.277Z,0.00
2019-02-15T02:46:15.224Z,0.00
2019-02-15T02:47:15.184Z,0.00
2019-02-15T02:48:15.118Z,0.00
2019-02-15T02:49:15.072Z,0.00
2019-02-15T02:50:15.070Z,0.00
2019-02-15T02:51:14.982Z,0.00
2019-02-15T02:52:14.922Z,0.00
2019-02-15T02:53:16.805Z,0.00
2019-02-15T02:54:14.840Z,0.00
2019-02-15T02:55:14.804Z,0.00
2019-02-15T02:56:14.783Z,0.00
2019-02-15T02:57:14.707Z,0.00
2019-02-15T02:58:14.667Z,0.00
2019-02-15T02:59:14.617Z,0.00
2019-02-15T03:00:14.574Z,0.00
2019-02-15T03:01:14.567Z,0.00
2019-02-15T03:02:14.497Z,0.00
2019-02-15T03:03:14.436Z,0.00
2019-02-15T03:04:14.405Z,0.00
2019-02-15T03:05:14.352Z,0.00
2019-02-15T03:06:14.302Z,0.00
2019-02-15T03:07:14.266Z,0.00
2019-02-15T03:08:14.222Z,0.00
2019-02-15T03:09:14.172Z,0.00
2019-02-15T03:10:14.123Z,0.00
2019-02-15T03:11:14.081Z,0.00
2019-02-15T03:12:14.052Z,0.00
2019-02-15T03:13:13.993Z,0.00
2019-02-15T03:14:13.954Z,0.00
2019-02-15T03:15:13.934Z,0.00
2019-02-15T03:16:13.906Z,0.00
2019-02-15T03:17:13.806Z,0.00
2019-02-15T03:18:13.779Z,0.00
2019-02-15T03:19:13.723Z,0.00
2019-02-15T03:20:13.686Z,0.00
2019-02-15T03:21:13.636Z,0.00
2019-02-15T03:22:13.638Z,0.00
2019-02-15T03:23:13.575Z,0.00
2019-02-15T03:24:13.540Z,0.00
2019-02-15T03:25:13.474Z,0.00
2019-02-15T03:26:13.476Z,0.00
2019-02-15T03:27:13.379Z,0.00
2019-02-15T03:28:13.341Z,0.00
2019-02-15T03:29:13.287Z,0.00
2019-02-15T03:30:13.317Z,0.00
2019-02-15T03:31:13.172Z,0.00
2019-02-15T03:32:13.157Z,0.00
2019-02-15T03:33:13.107Z,0.00
2019-02-15T03:34:13.063Z,0.00
2019-02-15T03:35:13.041Z,0.00
2019-02-15T03:36:12.957Z,0.00
2019-02-15T03:37:12.926Z,0.00
2019-02-15T03:38:12.890Z,0.00
2019-02-15T03:39:12.821Z,0.00
2019-02-15T03:40:12.798Z,0.00
2019-02-15T03:41:12.727Z,0.00
2019-02-15T03:42:12.713Z,0.00
2019-02-15T03:43:12.643Z,0.00
2019-02-15T03:44:21.743Z,0.00
2019-02-15T03:45:12.601Z,0.00
2019-02-15T03:46:12.501Z,0.00
2019-02-15T03:47:12.463Z,0.00
2019-02-15T03:48:12.424Z,0.00
2019-02-15T03:49:12.373Z,0.00
2019-02-15T03:50:12.344Z,0.00
2019-02-15T03:51:12.285Z,0.00
2019-02-15T03:52:12.241Z,0.00
2019-02-15T03:53:12.186Z,0.00
2019-02-15T03:54:12.171Z,0.00
2019-02-15T03:55:12.115Z,0.00
2019-02-15T03:56:12.072Z,0.00
2019-02-15T03:57:12.021Z,0.00
2019-02-15T03:58:11.970Z,0.00
2019-02-15T03:59:11.936Z,0.00
2019-02-15T04:00:11.894Z,0.00
2019-02-15T04:01:11.917Z,0.00
2019-02-15T04:02:11.792Z,0.00
2019-02-15T04:03:11.754Z,0.00
2019-02-15T04:04:11.701Z,0.00
2019-02-15T04:05:11.689Z,0.00
2019-02-15T04:06:11.610Z,0.00
2019-02-15T04:07:11.641Z,0.00
2019-02-15T04:08:11.517Z,0.00
2019-02-15T04:09:11.485Z,0.00
2019-02-15T04:10:11.422Z,0.00
2019-02-15T04:11:11.386Z,0.00
2019-02-15T04:12:11.326Z,0.00
2019-02-15T04:13:11.283Z,0.00
2019-02-15T04:14:11.282Z,0.00
2019-02-15T04:15:11.203Z,0.00
2019-02-15T04:16:11.151Z,0.00
2019-02-15T04:17:11.135Z,0.00
2019-02-15T04:18:11.061Z,0.00
2019-02-15T04:19:11.040Z,0.00
2019-02-15T04:20:10.991Z,0.00
2019-02-15T04:21:10.935Z,0.00
2019-02-15T04:22:10.934Z,0.00
2019-02-15T04:23:10.845Z,0.00
2019-02-15T04:24:10.846Z,0.00
2019-02-15T04:25:10.793Z,0.00
2019-02-15T04:26:10.721Z,0.00
2019-02-15T04:27:10.713Z,0.00
2019-02-15T04:28:10.696Z,0.00
2019-02-15T04:29:10.566Z,0.00
2019-02-15T04:30:10.571Z,0.00
2019-02-15T04:31:10.489Z,0.00
2019-02-15T04:32:10.445Z,0.00
2019-02-15T04:33:10.512Z,0.00
2019-02-15T04:34:10.379Z,0.00
2019-02-15T04:35:10.318Z,0.00
2019-02-15T04:36:10.260Z,0.00
2019-02-15T04:37:10.228Z,0.00
2019-02-15T04:38:10.167Z,0.00
2019-02-15T04:39:10.223Z,0.00
2019-02-15T04:40:10.091Z,0.00
2019-02-15T04:41:10.109Z,0.00
2019-02-15T04:42:09.981Z,0.00
2019-02-15T04:43:09.949Z,0.00
2019-02-15T04:44:09.895Z,0.00
2019-02-15T04:45:09.842Z,0.00
2019-02-15T04:46:09.797Z,0.00
2019-02-15T04:47:09.754Z,0.00
2019-02-15T04:48:09.712Z,0.00
2019-02-15T04:49:09.673Z,0.00
2019-02-15T04:50:09.641Z,0.00
2019-02-15T04:51:09.574Z,0.00
2019-02-15T04:52:09.538Z,0.00
2019-02-15T04:53:09.487Z,0.00
2019-02-15T04:54:09.445Z,0.00
2019-02-15T04:55:09.407Z,0.00
2019-02-15T04:56:09.404Z,0.00
2019-02-15T04:57:09.299Z,0.00
2019-02-15T04:58:09.261Z,0.00
2019-02-15T04:59:09.214Z,0.00
2019-02-15T05:00:09.277Z,0.00
2019-02-15T05:01:09.135Z,0.00
2019-02-15T05:02:09.166Z,0.00
2019-02-15T05:03:09.053Z,0.00
2019-02-15T05:04:09.013Z,0.00
2019-02-15T05:05:08.966Z,0.00
2019-02-15T05:06:08.955Z,0.00
2019-02-15T05:07:08.850Z,0.00
2019-02-15T05:08:08.831Z,0.00
2019-02-15T05:09:08.771Z,0.00
2019-02-15T05:10:08.754Z,0.00
2019-02-15T05:11:08.676Z,0.00
2019-02-15T05:12:08.638Z,0.00
2019-02-15T05:13:08.585Z,0.00
2019-02-15T05:14:08.533Z,0.00
2019-02-15T05:15:08.502Z,0.00
2019-02-15T05:16:08.442Z,0.00
2019-02-15T05:17:08.397Z,0.00
2019-02-15T05:18:08.348Z,0.00
2019-02-15T05:19:08.309Z,0.00
2019-02-15T05:20:08.278Z,0.00
2019-02-15T05:21:08.235Z,0.00
2019-02-15T05:22:08.166Z,0.00
2019-02-15T05:23:08.127Z,0.00
2019-02-15T05:24:08.097Z,0.00
2019-02-15T05:25:08.039Z,0.00
2019-02-15T05:26:08.000Z,0.00
2019-02-15T05:27:07.950Z,0.00
2019-02-15T05:28:08.974Z,0.00
2019-02-15T05:29:07.897Z,0.00
2019-02-15T05:30:07.822Z,0.00
2019-02-15T05:31:07.765Z,0.00
2019-02-15T05:32:07.727Z,0.00
2019-02-15T05:33:07.695Z,0.00
2019-02-15T05:34:07.628Z,0.00
2019-02-15T05:35:07.600Z,0.00
2019-02-15T05:36:07.565Z,0.00
2019-02-15T05:37:07.563Z,0.00
2019-02-15T05:38:07.458Z,0.00
2019-02-15T05:39:07.414Z,0.00
2019-02-15T05:40:07.373Z,0.00
2019-02-15T05:41:07.317Z,0.00
2019-02-15T05:42:07.279Z,0.00
2019-02-15T05:43:07.222Z,0.00
2019-02-15T05:44:07.190Z,0.00
2019-02-15T05:45:07.145Z,0.00
2019-02-15T05:46:07.139Z,0.00
2019-02-15T05:47:07.059Z,0.00
2019-02-15T05:48:07.004Z,0.00
2019-02-15T05:49:07.006Z,0.00
2019-02-15T05:50:06.939Z,0.00
2019-02-15T05:51:06.874Z,4.00
2019-02-15T05:52:06.813Z,4.00
2019-02-15T05:53:06.783Z,4.00
2019-02-15T05:54:06.722Z,4.00
2019-02-15T05:55:06.703Z,4.00
2019-02-15T05:56:06.644Z,4.00
2019-02-15T05:57:06.586Z,4.00
2019-02-15T05:58:06.550Z,8.00
2019-02-15T05:59:06.514Z,8.00
2019-02-15T06:00:06.453Z,8.00
2019-02-15T06:01:06.427Z,12.00
2019-02-15T06:02:06.375Z,12.00
2019-02-15T06:03:06.370Z,16.00
2019-02-15T06:04:06.273Z,20.00
2019-02-15T06:05:06.260Z,24.00
2019-02-15T06:06:06.192Z,28.00
2019-02-15T06:07:06.150Z,32.00
2019-02-15T06:08:06.136Z,36.00
2019-02-15T06:09:06.069Z,48.00
2019-02-15T06:10:06.022Z,52.00
2019-02-15T06:11:07.795Z,60.00
2019-02-15T06:12:05.912Z,76.00
2019-02-15T06:13:05.892Z,92.00
2019-02-15T06:14:05.836Z,104.00
2019-02-15T06:15:14.888Z,120.00
2019-02-15T06:16:05.757Z,144.00
2019-02-15T06:17:05.694Z,164.00
2019-02-15T06:18:05.665Z,192.00
2019-02-15T06:19:05.640Z,220.00
2019-02-15T06:20:05.551Z,252.00
2019-02-15T06:21:05.526Z,288.00
2019-02-15T06:22:05.461Z,324.00
2019-02-15T06:23:05.429Z,368.00
2019-02-15T06:24:05.383Z,408.00
2019-02-15T06:25:05.342Z,456.00
2019-02-15T06:26:05.284Z,508.00
2019-02-15T06:27:05.251Z,564.00
2019-02-15T06:28:05.209Z,616.00
2019-02-15T06:29:05.159Z,676.00
2019-02-15T06:30:05.125Z,740.00
2019-02-15T06:31:05.049Z,804.00
2019-02-15T06:32:05.039Z,868.00
2019-02-15T06:33:04.966Z,932.00
2019-02-15T06:34:04.918Z,996.00
2019-02-15T06:35:04.869Z,1060.00
2019-02-15T06:36:04.858Z,1124.00
2019-02-15T06:37:04.779Z,1196.00
2019-02-15T06:38:04.740Z,1264.00
2019-02-15T06:39:04.697Z,1340.00
2019-02-15T06:40:04.661Z,1412.00
2019-02-15T06:41:04.692Z,1488.00
2019-02-15T06:42:04.555Z,1568.00
2019-02-15T06:43:04.577Z,1640.00
2019-02-15T06:44:04.481Z,1716.00
2019-02-15T06:45:04.424Z,1788.00
2019-02-15T06:46:04.388Z,1860.00
2019-02-15T06:47:04.339Z,1940.00
2019-02-15T06:48:04.349Z,2012.00
2019-02-15T06:49:04.269Z,2088.00
2019-02-15T06:50:04.198Z,2164.00
2019-02-15T06:51:04.163Z,2236.00
2019-02-15T06:52:04.102Z,2312.00
2019-02-15T06:53:04.200Z,2388.00
2019-02-15T06:54:04.032Z,2456.00
2019-02-15T06:55:03.957Z,2524.00
2019-02-15T06:56:03.926Z,2596.00
2019-02-15T06:57:03.872Z,2668.00
2019-02-15T06:58:03.818Z,2732.00
2019-02-15T06:59:03.791Z,2800.00
2019-02-15T07:00:03.739Z,2864.00
2019-02-15T07:01:03.705Z,2932.00
2019-02-15T07:02:03.643Z,2992.00
2019-02-15T07:03:03.597Z,3060.00
2019-02-15T07:04:03.586Z,3124.00
2019-02-15T07:05:03.509Z,3184.00
2019-02-15T07:06:03.464Z,3248.00
2019-02-15T07:07:03.437Z,3304.00
2019-02-15T07:08:03.382Z,3360.00
2019-02-15T07:09:03.346Z,3424.00
2019-02-15T07:10:03.357Z,3488.00
2019-02-15T07:11:03.238Z,3548.00
2019-02-15T07:12:03.242Z,3600.00
2019-02-15T07:13:03.148Z,3648.00
2019-02-15T07:14:03.169Z,3708.00
2019-02-15T07:15:03.173Z,3760.00
2019-02-15T07:16:03.130Z,3820.00
2019-02-15T07:17:02.990Z,3872.00
2019-02-15T07:18:02.928Z,3924.00
2019-02-15T07:19:02.909Z,3976.00
2019-02-15T07:20:02.832Z,4032.00
2019-02-15T07:21:02.829Z,4080.00
2019-02-15T07:22:02.778Z,4132.00
2019-02-15T07:23:02.734Z,4176.00
2019-02-15T07:24:02.694Z,4224.00
2019-02-15T07:25:02.681Z,4268.00
2019-02-15T07:26:02.624Z,4320.00
2019-02-15T07:27:02.517Z,4372.00
2019-02-15T07:28:02.578Z,4416.00
2019-02-15T07:29:02.481Z,4464.00
2019-02-15T07:30:02.469Z,4504.00
2019-02-15T07:31:02.512Z,4544.00
2019-02-15T07:32:02.407Z,4588.00
2019-02-15T07:33:02.297Z,4632.00
2019-02-15T07:34:02.282Z,4680.00
2019-02-15T07:35:02.188Z,4720.00
2019-02-15T07:36:02.207Z,4768.00
2019-02-15T07:37:02.074Z,4808.00
2019-02-15T07:38:02.098Z,4896.00
2019-02-15T07:39:01.992Z,5364.00
2019-02-15T07:40:01.979Z,6176.00
2019-02-15T07:41:01.923Z,7964.00
2019-02-15T07:42:01.984Z,12208.00
2019-02-15T07:43:01.871Z,15232.00
2019-02-15T07:44:01.853Z,15104.00
2019-02-15T07:45:01.722Z,10300.00
2019-02-15T07:46:01.684Z,8092.00
2019-02-15T07:47:01.647Z,11856.00
2019-02-15T07:48:01.713Z,16832.00
2019-02-15T07:49:01.540Z,15264.00
2019-02-15T07:50:01.590Z,11712.00
2019-02-15T07:51:09.389Z,8244.00
2019-02-15T07:52:01.445Z,5432.00
2019-02-15T07:53:01.388Z,5448.00
2019-02-15T07:54:01.349Z,8468.00
2019-02-15T07:55:01.350Z,16640.00
2019-02-15T07:56:01.281Z,17344.00
2019-02-15T07:57:01.317Z,13444.00
2019-02-15T07:58:01.247Z,10108.00
2019-02-15T07:59:01.454Z,16896.00
2019-02-15T08:00:01.177Z,25600.00
2019-02-15T08:01:01.475Z,27936.00
2019-02-15T08:02:02.031Z,29440.00
2019-02-15T08:03:01.035Z,29504.00
2019-02-15T08:04:01.122Z,25920.00
2019-02-15T08:05:00.936Z,19008.00
2019-02-15T08:06:01.752Z,20256.00
2019-02-15T08:07:01.369Z,26464.00
2019-02-15T08:08:01.332Z,25504.00
2019-02-15T08:09:00.977Z,23392.00
2019-02-15T08:10:01.144Z,20160.00
2019-02-15T08:11:01.083Z,19648.00
2019-02-15T08:12:00.819Z,23136.00
2019-02-15T08:13:01.055Z,20160.00
2019-02-15T08:14:00.781Z,15036.00
2019-02-15T08:15:00.730Z,11636.00
2019-02-15T08:16:02.692Z,10052.00
2019-02-15T08:17:00.633Z,10244.00
2019-02-15T08:18:00.716Z,14940.00
2019-02-15T08:19:00.612Z,18752.00
2019-02-15T08:20:00.860Z,20640.00
2019-02-15T08:21:00.375Z,20992.00
2019-02-15T08:22:00.446Z,25024.00
2019-02-15T08:23:00.475Z,27648.00
2019-02-15T08:24:00.763Z,31392.00
2019-02-15T08:25:00.602Z,31136.00
2019-02-15T08:26:00.405Z,25920.00
2019-02-15T08:27:00.407Z,14624.00
2019-02-15T08:28:00.239Z,10464.00
2019-02-15T08:29:00.759Z,10980.00
2019-02-15T08:30:00.314Z,9908.00
2019-02-15T08:31:00.497Z,9652.00
2019-02-15T08:32:00.766Z,12880.00
2019-02-15T08:33:00.090Z,12056.00
2019-02-15T08:33:59.948Z,10172.00
2019-02-15T08:34:59.982Z,11100.00
2019-02-15T08:36:00.037Z,12076.00
2019-02-15T08:37:00.069Z,12648.00
2019-02-15T08:38:00.268Z,15420.00
2019-02-15T08:39:00.450Z,15408.00
2019-02-15T08:40:00.343Z,17536.00
2019-02-15T08:41:00.267Z,21216.00
2019-02-15T08:42:03.847Z,19072.00
2019-02-15T08:43:00.335Z,21280.00
2019-02-15T08:44:00.275Z,28352.00
2019-02-15T08:45:00.778Z,33216.00
2019-02-15T08:46:02.742Z,32448.00
2019-02-15T08:46:59.596Z,23584.00
2019-02-15T08:47:59.269Z,18560.00
2019-02-15T08:48:59.477Z,20128.00
2019-02-15T08:49:59.241Z,20320.00
2019-02-15T08:50:59.223Z,16740.00
2019-02-15T08:51:59.134Z,14108.00
2019-02-15T08:52:59.112Z,26880.00
2019-02-15T08:53:59.196Z,30272.00
2019-02-15T08:54:59.406Z,32320.00
2019-02-15T08:55:59.803Z,36192.00
2019-02-15T08:56:59.023Z,29568.00
2019-02-15T08:57:59.302Z,30432.00
2019-02-15T08:58:59.036Z,40032.00
2019-02-15T08:59:58.870Z,39392.00
2019-02-15T09:00:58.852Z,38784.00
2019-02-15T09:01:58.852Z,35648.00
2019-02-15T09:02:58.999Z,27840.00
2019-02-15T09:03:58.737Z,27296.00
2019-02-15T09:04:59.005Z,28576.00
2019-02-15T09:05:58.801Z,28160.00
2019-02-15T09:06:58.783Z,27744.00
2019-02-15T09:07:58.618Z,36864.00
2019-02-15T09:08:58.609Z,41952.00
2019-02-15T09:09:58.575Z,41568.00
2019-02-15T09:10:58.589Z,40288.00
2019-02-15T09:11:58.499Z,39168.00
2019-02-15T09:12:58.502Z,40160.00
2019-02-15T09:13:58.433Z,41440.00
2019-02-15T09:14:58.385Z,42944.00
2019-02-15T09:15:58.351Z,44640.00
2019-02-15T09:16:58.325Z,43968.00
2019-02-15T09:17:58.335Z,40224.00
2019-02-15T09:18:58.374Z,38560.00
2019-02-15T09:19:58.302Z,39296.00
2019-02-15T09:20:58.235Z,37888.00
2019-02-15T09:21:58.266Z,40832.00
2019-02-15T09:22:58.205Z,40640.00
2019-02-15T09:23:58.160Z,43712.00
2019-02-15T09:24:58.140Z,46720.00
2019-02-15T09:25:58.122Z,44384.00
2019-02-15T09:26:58.096Z,44800.00
2019-02-15T09:27:58.185Z,45536.00
2019-02-15T09:28:58.054Z,44032.00
2019-02-15T09:29:58.104Z,44224.00
2019-02-15T09:30:58.155Z,42880.00
2019-02-15T09:31:58.000Z,45536.00
2019-02-15T09:32:58.098Z,42432.00
2019-02-15T09:33:57.968Z,40576.00
2019-02-15T09:34:58.016Z,41152.00
2019-02-15T09:35:57.877Z,40992.00
2019-02-15T09:36:59.728Z,41568.00
2019-02-15T09:37:57.796Z,43808.00
2019-02-15T09:38:57.766Z,46144.00
2019-02-15T09:39:57.907Z,47872.00
2019-02-15T09:40:57.727Z,50848.00
2019-02-15T09:41:57.772Z,44544.00
2019-02-15T09:42:57.690Z,42688.00
2019-02-15T09:43:57.787Z,47872.00
2019-02-15T09:44:57.640Z,50400.00
2019-02-15T09:45:58.294Z,49664.00
2019-02-15T09:46:57.571Z,49568.00
2019-02-15T09:47:57.613Z,48128.00
2019-02-15T09:48:57.611Z,51616.00
2019-02-15T09:49:57.498Z,52672.00
2019-02-15T09:50:57.572Z,57184.00
2019-02-15T09:51:57.494Z,55360.00
2019-02-15T09:52:57.563Z,51104.00
2019-02-15T09:53:57.382Z,54048.00
2019-02-15T09:54:57.448Z,49632.00
2019-02-15T09:55:57.625Z,48864.00
2019-02-15T09:56:57.292Z,57184.00
2019-02-15T09:57:57.266Z,48928.00
2019-02-15T09:58:57.316Z,55488.00
2019-02-15T09:59:57.307Z,58496.00
2019-02-15T10:00:57.211Z,49920.00
2019-02-15T10:01:57.246Z,54656.00
2019-02-15T10:02:57.254Z,55456.00
2019-02-15T10:03:57.141Z,52448.00
2019-02-15T10:04:57.241Z,56256.00
2019-02-15T10:05:57.109Z,47968.00
2019-02-15T10:06:57.097Z,43712.00
2019-02-15T10:07:57.100Z,42432.00
2019-02-15T10:08:57.057Z,43040.00
2019-02-15T10:09:57.043Z,50272.00
2019-02-15T10:10:57.050Z,53216.00
2019-02-15T10:11:56.957Z,58720.00
2019-02-15T10:12:56.913Z,53824.00
2019-02-15T10:13:56.890Z,51744.00
2019-02-15T10:14:56.879Z,44096.00
2019-02-15T10:15:56.843Z,44832.00
2019-02-15T10:16:56.846Z,50176.00
2019-02-15T10:17:56.779Z,50880.00
2019-02-15T10:18:56.767Z,52192.00
2019-02-15T10:19:56.740Z,53120.00
2019-02-15T10:20:56.727Z,50912.00
2019-02-15T10:21:56.700Z,55840.00
2019-02-15T10:22:56.726Z,56384.00
2019-02-15T10:23:56.653Z,57344.00
2019-02-15T10:24:56.635Z,58496.00
2019-02-15T10:25:56.612Z,54080.00
2019-02-15T10:26:56.587Z,57408.00
2019-02-15T10:27:56.553Z,58624.00
2019-02-15T10:28:56.542Z,53984.00
2019-02-15T10:29:56.614Z,59136.00
2019-02-15T10:30:56.480Z,64608.00
2019-02-15T10:31:56.461Z,65120.00
2019-02-15T10:32:56.443Z,58944.00
2019-02-15T10:33:56.416Z,52800.00
2019-02-15T10:34:56.394Z,48160.00
2019-02-15T10:35:56.391Z,51488.00
2019-02-15T10:36:56.335Z,60672.00
2019-02-15T10:37:56.363Z,65696.00
2019-02-15T10:38:56.296Z,68192.00
2019-02-15T10:39:56.291Z,61984.00
2019-02-15T10:40:56.298Z,58816.00
2019-02-15T10:41:56.224Z,67296.00
2019-02-15T10:42:56.207Z,69024.00
2019-02-15T10:43:56.183Z,77696.00
2019-02-15T10:44:56.145Z,66240.00
2019-02-15T10:45:56.129Z,53664.00
2019-02-15T10:46:56.136Z,61792.00
2019-02-15T10:47:56.100Z,58400.00
2019-02-15T10:48:56.170Z,60896.00
2019-02-15T10:49:56.123Z,63552.00
2019-02-15T10:50:56.020Z,61280.00
2019-02-15T10:51:56.010Z,62272.00
2019-02-15T10:52:55.980Z,58560.00
2019-02-15T10:53:55.967Z,65440.00
2019-02-15T10:54:55.955Z,71520.00
2019-02-15T10:55:55.946Z,71104.00
2019-02-15T10:56:55.928Z,65952.00
2019-02-15T10:57:55.971Z,60096.00
2019-02-15T10:58:55.855Z,60800.00
2019-02-15T10:59:55.839Z,65472.00
2019-02-15T11:00:55.855Z,66816.00
2019-02-15T11:01:55.843Z,70656.00
2019-02-15T11:02:55.772Z,73696.00
2019-02-15T11:03:55.759Z,71776.00
2019-02-15T11:04:55.692Z,65696.00
2019-02-15T11:05:55.677Z,62944.00
2019-02-15T11:06:55.662Z,62272.00
2019-02-15T11:07:55.619Z,63392.00
2019-02-15T11:08:55.593Z,59328.00
2019-02-15T11:09:55.769Z,58016.00
2019-02-15T11:10:55.625Z,58048.00
2019-02-15T11:11:57.445Z,63104.00
2019-02-15T11:12:55.522Z,67200.00
2019-02-15T11:13:55.601Z,72384.00
2019-02-15T11:14:55.481Z,74752.00
2019-02-15T11:15:55.414Z,80000.00
2019-02-15T11:16:55.432Z,79392.00
2019-02-15T11:17:55.378Z,74496.00
2019-02-15T11:18:55.367Z,64640.00
2019-02-15T11:19:55.403Z,67328.00
2019-02-15T11:20:55.326Z,64288.00
2019-02-15T11:21:55.342Z,67936.00
2019-02-15T11:22:55.250Z,66240.00
2019-02-15T11:23:55.248Z,64672.00
2019-02-15T11:24:55.220Z,62656.00
2019-02-15T11:25:55.192Z,61728.00
2019-02-15T11:26:55.192Z,63424.00
2019-02-15T11:27:55.193Z,67328.00
2019-02-15T11:28:55.111Z,66176.00
2019-02-15T11:29:55.077Z,68416.00
2019-02-15T11:30:55.109Z,64192.00
2019-02-15T11:31:55.041Z,64352.00
2019-02-15T11:32:55.010Z,64864.00
2019-02-15T11:33:54.987Z,70784.00
2019-02-15T11:34:54.976Z,71872.00
2019-02-15T11:35:54.936Z,75808.00
2019-02-15T11:36:54.926Z,70528.00
2019-02-15T11:37:54.874Z,73792.00
2019-02-15T11:38:54.952Z,61920.00
2019-02-15T11:39:54.881Z,71104.00
2019-02-15T11:40:54.811Z,64320.00
2019-02-15T11:41:54.798Z,69280.00
2019-02-15T11:42:54.877Z,66048.00
2019-02-15T11:43:54.764Z,69248.00
2019-02-15T11:44:54.887Z,68064.00
2019-02-15T11:45:54.693Z,60320.00
2019-02-15T11:46:56.689Z,73056.00
2019-02-15T11:47:55.481Z,75424.00
2019-02-15T11:48:55.728Z,71904.00
2019-02-15T11:49:54.604Z,75264.00
2019-02-15T11:50:54.569Z,66496.00
2019-02-15T11:51:54.557Z,48896.00
2019-02-15T11:52:54.515Z,51936.00
2019-02-15T11:53:54.533Z,50592.00
2019-02-15T11:54:54.470Z,55584.00
2019-02-15T11:55:54.452Z,55104.00
2019-02-15T11:56:54.476Z,53664.00
2019-02-15T11:57:54.438Z,59264.00
2019-02-15T11:58:54.373Z,61120.00
2019-02-15T11:59:54.363Z,73568.00
2019-02-15T12:00:54.348Z,79168.00
2019-02-15T12:01:54.288Z,83584.00
2019-02-15T12:02:54.281Z,72320.00
2019-02-15T12:03:54.265Z,71904.00
2019-02-15T12:04:54.247Z,68096.00
2019-02-15T12:05:54.213Z,74752.00
2019-02-15T12:06:54.183Z,76736.00
2019-02-15T12:07:54.143Z,79200.00
2019-02-15T12:08:54.129Z,75648.00
2019-02-15T12:09:54.105Z,74080.00
2019-02-15T12:10:54.095Z,71872.00
2019-02-15T12:11:54.059Z,68864.00
2019-02-15T12:12:54.030Z,71424.00
2019-02-15T12:13:54.009Z,70496.00
2019-02-15T12:14:54.021Z,63168.00
2019-02-15T12:15:53.962Z,62016.00
2019-02-15T12:16:53.952Z,60448.00
2019-02-15T12:17:53.906Z,65344.00
2019-02-15T12:18:53.902Z,71584.00
2019-02-15T12:19:53.867Z,67552.00
2019-02-15T12:20:53.850Z,69728.00
2019-02-15T12:21:53.813Z,45056.00
2019-02-15T12:22:53.806Z,32448.00
2019-02-15T12:23:53.762Z,32864.00
2019-02-15T12:24:53.745Z,31392.00
2019-02-15T12:25:53.729Z,28000.00
2019-02-15T12:26:53.694Z,26592.00
2019-02-15T12:27:53.685Z,27136.00
2019-02-15T12:28:53.671Z,31200.00
2019-02-15T12:29:53.631Z,33408.00
2019-02-15T12:30:53.596Z,32480.00
2019-02-15T12:31:53.579Z,28256.00
2019-02-15T12:32:53.541Z,26528.00
2019-02-15T12:33:53.528Z,26912.00
2019-02-15T12:34:53.506Z,30144.00
2019-02-15T12:35:53.504Z,31648.00
2019-02-15T12:36:53.451Z,28192.00
2019-02-15T12:37:53.428Z,26400.00
2019-02-15T12:38:53.422Z,27904.00
2019-02-15T12:39:53.412Z,30048.00
2019-02-15T12:40:53.382Z,27936.00
2019-02-15T12:41:53.350Z,26912.00
2019-02-15T12:42:53.295Z,31488.00
2019-02-15T12:43:53.273Z,32832.00
2019-02-15T12:44:53.264Z,29728.00
2019-02-15T12:45:53.233Z,29728.00
2019-02-15T12:46:53.195Z,28064.00
2019-02-15T12:47:53.178Z,30720.00